Mekoryuk, Alaska
Current Conditions -  °F | °C
As of 5:56 PM on Sunday 23 Nov 2014 (Local Time) from PAMY Reporting Station
Overcast Overcast  
Wind Chill:   Ceiling: 2700
Heat Index: 21°   Visibility: 10mi
Dew Point: 10°   Wind: 12mph
Humidity: 63%   Direction: 50°NE
Pressure: 29.51"   Gusts: NA
Location:  60.39°N, 166.19°W
Report Text: PAMY 240256Z AUTO 05010KT 10SM FEW015 OVC027 M06/M12 A2951 RMK AO1 52010
Loading
Personal Weather Stations






























Interactive Weather Map New forecast layout! Learn more

10-Day Weather Forecast

Advertisements
Track Severe Weather on mobile